Time;durP1;ratioP1;P1;durP2;ratioP2;P2;SDS_P1;SDS_P2;PMS_P1;PMS_P2;Temp;Humidity;BMP_temperature;BMP_pressure;BME280_temperature;BME280_humidity;BME280_pressure;Samples;Min_cycle;Max_cycle;Signal;HPM_P1;HPM_P2
2023/11/19 11:56:40;;;;;;;0.73;0.15;;;;;;;;;;5152888;27;20404;-59
2023/11/19 11:59:24;;;;;;;0.73;0.35;;;;;;;;;;5132130;28;20024;-60
2023/11/19 12:01:59;;;;;;;0.85;0.30;;;;;;;;;;5132193;28;20023;-59
2023/11/19 12:04:29;;;;;;;0.98;0.45;;;;;;;;;;5131669;28;20024;-59
2023/11/19 12:07:04;;;;;;;0.98;0.30;;;;;;;;;;5132181;28;20080;-59
2023/11/19 12:09:30;;;;;;;0.65;0.30;;;;;;;;;;5131191;27;20119;-59
2023/11/19 12:12:12;;;;;;;0.35;0.10;;;;;;;;;;5132059;27;20030;-60
2023/11/19 12:14:56;;;;;;;0.38;0.10;;;;;;;;;;5131417;28;20031;-58
2023/11/19 12:17:34;;;;;;;1.02;0.20;;;;;;;;;;5131747;28;20107;-59
2023/11/19 12:20:01;;;;;;;2.92;1.05;;;;;;;;;;5132023;28;20023;-59
2023/11/19 12:22:27;;;;;;;1.48;0.60;;;;;;;;;;5131407;28;20019;-59
2023/11/19 12:24:54;;;;;;;0.60;0.28;;;;;;;;;;5131174;28;20369;-59
2023/11/19 12:27:22;;;;;;;0.35;0.13;;;;;;;;;;5131660;28;20023;-60
2023/11/19 12:29:48;;;;;;;0.65;0.30;;;;;;;;;;5130966;27;20537;-60
2023/11/19 12:32:14;;;;;;;1.85;0.45;;;;;;;;;;5131652;28;20031;-60
2023/11/19 12:34:40;;;;;;;0.57;0.17;;;;;;;;;;5131477;28;20023;-60
2023/11/19 12:37:06;;;;;;;0.45;0.20;;;;;;;;;;5131569;27;20030;-58
2023/11/19 12:39:32;;;;;;;2.10;0.40;;;;;;;;;;5130850;28;20027;-58
2023/11/19 12:41:59;;;;;;;0.80;0.40;;;;;;;;;;5131119;28;20102;-58
2023/11/19 12:44:28;;;;;;;0.70;0.30;;;;;;;;;;5128023;27;20043;-58
2023/11/19 12:47:07;;;;;;;0.35;0.17;;;;;;;;;;5111324;28;20028;-59
2023/11/19 12:49:35;;;;;;;2.15;0.57;;;;;;;;;;5110465;28;20028;-60
2023/11/19 12:52:01;;;;;;;0.45;0.25;;;;;;;;;;5110638;28;20157;-58
2023/11/19 12:54:34;;;;;;;2.30;0.30;;;;;;;;;;5113603;28;20373;-59
2023/11/19 12:57:00;;;;;;;0.35;0.15;;;;;;;;;;5120509;28;20024;-59
2023/11/19 12:59:27;;;;;;;0.60;0.25;;;;;;;;;;5117048;28;20049;-59
2023/11/19 13:01:56;;;;;;;0.55;0.20;;;;;;;;;;5117688;28;20027;-59
2023/11/19 13:04:24;;;;;;;3.67;0.50;;;;;;;;;;5117146;28;20046;-58
2023/11/19 13:06:50;;;;;;;0.43;0.17;;;;;;;;;;5116825;28;20020;-61
2023/11/19 13:09:24;;;;;;;1.05;0.35;;;;;;;;;;5116413;28;20036;-58
2023/11/19 13:11:50;;;;;;;0.98;0.30;;;;;;;;;;5116592;28;20024;-58
2023/11/19 13:14:16;;;;;;;0.30;0.10;;;;;;;;;;5116697;28;20533;-59
2023/11/19 13:16:42;;;;;;;0.70;0.30;;;;;;;;;;5116847;28;20369;-59
2023/11/19 13:19:09;;;;;;;0.88;0.43;;;;;;;;;;5116665;28;20081;-60
2023/11/19 13:21:36;;;;;;;0.45;0.20;;;;;;;;;;5116616;28;20054;-60
2023/11/19 13:24:02;;;;;;;2.08;0.55;;;;;;;;;;5116572;28;20445;-60
2023/11/19 13:26:28;;;;;;;0.85;0.28;;;;;;;;;;5116556;28;20024;-60
2023/11/19 13:28:54;;;;;;;0.73;0.30;;;;;;;;;;5117130;28;20034;-60
2023/11/19 13:31:20;;;;;;;0.73;0.30;;;;;;;;;;5116461;28;20103;-60
2023/11/19 13:33:47;;;;;;;1.42;0.38;;;;;;;;;;5116297;28;20049;-60
2023/11/19 13:36:12;;;;;;;0.45;0.20;;;;;;;;;;5116851;28;20051;-60
2023/11/19 13:38:40;;;;;;;1.48;0.45;;;;;;;;;;5116910;28;20473;-60
2023/11/19 13:41:08;;;;;;;1.20;0.43;;;;;;;;;;5116260;28;20458;-60
2023/11/19 13:43:34;;;;;;;0.10;0.10;;;;;;;;;;5116068;28;20053;-60
2023/11/19 13:46:00;;;;;;;1.88;0.30;;;;;;;;;;5116006;28;20039;-60
2023/11/19 13:48:28;;;;;;;1.60;0.40;;;;;;;;;;5117042;28;20081;-58
2023/11/19 13:50:54;;;;;;;0.75;0.20;;;;;;;;;;5116693;28;20077;-58
2023/11/19 13:53:20;;;;;;;1.63;0.47;;;;;;;;;;5116458;28;20020;-58
2023/11/19 13:55:47;;;;;;;0.65;0.30;;;;;;;;;;5115535;28;20051;-60
2023/11/19 13:58:13;;;;;;;1.85;0.40;;;;;;;;;;5116558;28;20365;-60
2023/11/19 14:00:41;;;;;;;1.25;0.40;;;;;;;;;;5115661;28;20035;-60
2023/11/19 14:03:07;;;;;;;2.22;0.47;;;;;;;;;;5115863;28;20023;-60
2023/11/19 14:05:33;;;;;;;2.22;0.25;;;;;;;;;;5115862;28;20476;-60
2023/11/19 14:08:01;;;;;;;0.85;0.38;;;;;;;;;;5115234;28;20445;-60
2023/11/19 14:10:27;;;;;;;0.55;0.25;;;;;;;;;;5116399;28;20027;-60
2023/11/19 14:12:53;;;;;;;0.90;0.30;;;;;;;;;;5116165;28;20024;-60
2023/11/19 14:15:19;;;;;;;6.90;0.57;;;;;;;;;;5115601;28;20038;-60
2023/11/19 14:17:45;;;;;;;0.52;0.20;;;;;;;;;;5115989;28;20019;-60
2023/11/19 14:20:15;;;;;;;3.20;0.35;;;;;;;;;;5116201;28;20402;-60
2023/11/19 14:22:42;;;;;;;2.42;0.30;;;;;;;;;;5115516;28;20461;-60
2023/11/19 14:25:10;;;;;;;0.40;0.20;;;;;;;;;;5115327;28;20031;-60
2023/11/19 14:27:39;;;;;;;2.15;0.47;;;;;;;;;;5116687;28;20066;-60
2023/11/19 14:30:11;;;;;;;0.45;0.30;;;;;;;;;;5115585;28;20016;-60
2023/11/19 14:32:38;;;;;;;0.45;0.20;;;;;;;;;;5115888;28;20026;-60
2023/11/19 14:35:04;;;;;;;0.77;0.40;;;;;;;;;;5115917;28;20028;-60
2023/11/19 14:37:33;;;;;;;0.52;0.20;;;;;;;;;;5115169;28;20024;-59
2023/11/19 14:40:00;;;;;;;1.27;0.35;;;;;;;;;;5115052;28;20023;-60
2023/11/19 14:42:26;;;;;;;0.55;0.25;;;;;;;;;;5114922;28;20084;-60
2023/11/19 14:44:53;;;;;;;0.65;0.30;;;;;;;;;;5114864;28;20119;-60
2023/11/19 14:47:19;;;;;;;0.50;0.28;;;;;;;;;;5115062;28;20039;-59
2023/11/19 14:49:45;;;;;;;0.17;0.10;;;;;;;;;;5114860;28;20028;-59
2023/11/19 14:52:11;;;;;;;0.75;0.43;;;;;;;;;;5114243;28;20035;-58
2023/11/19 14:54:38;;;;;;;1.05;0.50;;;;;;;;;;5115015;28;20051;-58
2023/11/19 14:57:04;;;;;;;0.75;0.50;;;;;;;;;;5115324;28;20349;-61
2023/11/19 14:59:31;;;;;;;0.52;0.20;;;;;;;;;;5113241;28;20039;-58
2023/11/19 15:01:57;;;;;;;1.05;0.40;;;;;;;;;;5114353;28;20028;-58
2023/11/19 15:04:23;;;;;;;1.58;0.70;;;;;;;;;;5114477;28;20035;-58
2023/11/19 15:06:49;;;;;;;1.67;0.60;;;;;;;;;;5115184;28;20027;-58
2023/11/19 15:09:17;;;;;;;0.98;0.47;;;;;;;;;;5114529;28;20024;-58
2023/11/19 15:11:45;;;;;;;2.65;0.70;;;;;;;;;;5115024;28;20030;-58
2023/11/19 15:14:14;;;;;;;0.47;0.20;;;;;;;;;;5114940;28;20027;-58
2023/11/19 15:16:40;;;;;;;0.47;0.28;;;;;;;;;;5114422;28;20019;-58
2023/11/19 15:19:08;;;;;;;1.00;0.47;;;;;;;;;;5113957;28;20106;-59
2023/11/19 15:21:33;;;;;;;3.72;0.35;;;;;;;;;;5114703;28;20039;-59
2023/11/19 15:24:00;;;;;;;0.93;0.35;;;;;;;;;;5113870;28;20027;-59
2023/11/19 15:26:26;;;;;;;0.52;0.17;;;;;;;;;;5114303;28;20024;-59
2023/11/19 15:29:01;;;;;;;1.73;0.50;;;;;;;;;;5114626;28;20035;-59
2023/11/19 15:31:27;;;;;;;0.85;0.35;;;;;;;;;;5114512;28;20460;-59
2023/11/19 15:33:53;;;;;;;0.52;0.20;;;;;;;;;;5114199;28;20034;-59
2023/11/19 15:36:18;;;;;;;0.77;0.40;;;;;;;;;;5114125;28;20027;-59
2023/11/19 15:38:45;;;;;;;3.00;0.70;;;;;;;;;;5114665;28;20034;-59
2023/11/19 15:41:11;;;;;;;0.63;0.22;;;;;;;;;;5114068;28;20350;-58
2023/11/19 15:43:38;;;;;;;0.95;0.38;;;;;;;;;;5114386;28;20055;-59
2023/11/19 15:46:10;;;;;;;0.60;0.30;;;;;;;;;;5113970;28;20036;-58
2023/11/19 15:48:36;;;;;;;1.60;0.40;;;;;;;;;;5114661;28;20058;-58
2023/11/19 15:51:02;;;;;;;0.55;0.30;;;;;;;;;;5114141;28;20429;-58
2023/11/19 15:53:30;;;;;;;2.03;0.40;;;;;;;;;;5114437;28;20110;-58
2023/11/19 15:55:56;;;;;;;1.52;0.50;;;;;;;;;;5114687;28;20051;-58
2023/11/19 15:58:22;;;;;;;1.17;0.38;;;;;;;;;;5114469;28;20457;-58
2023/11/19 16:00:48;;;;;;;1.02;0.30;;;;;;;;;;5113847;28;20030;-59
2023/11/19 16:03:14;;;;;;;0.90;0.30;;;;;;;;;;5095674;28;20060;-58
2023/11/19 16:05:41;;;;;;;3.38;0.63;;;;;;;;;;5113736;28;20031;-59
2023/11/19 16:08:09;;;;;;;0.90;0.43;;;;;;;;;;5114232;28;20024;-59
2023/11/19 16:10:39;;;;;;;1.25;0.40;;;;;;;;;;5114594;28;20169;-59
2023/11/19 16:13:06;;;;;;;0.77;0.40;;;;;;;;;;5113818;28;20061;-59
2023/11/19 16:15:32;;;;;;;0.60;0.30;;;;;;;;;;5113819;28;20039;-58
2023/11/19 16:17:58;;;;;;;1.73;0.60;;;;;;;;;;5114358;28;20039;-59
2023/11/19 16:20:25;;;;;;;0.93;0.38;;;;;;;;;;5113747;28;20448;-59
2023/11/19 16:22:51;;;;;;;1.05;0.40;;;;;;;;;;5113707;28;20469;-58
2023/11/19 16:25:18;;;;;;;2.38;0.57;;;;;;;;;;5113571;28;20123;-58
2023/11/19 16:27:44;;;;;;;1.13;0.50;;;;;;;;;;5114247;28;20035;-59
2023/11/19 16:30:10;;;;;;;1.27;0.60;;;;;;;;;;5113958;28;20097;-58
2023/11/19 16:32:56;;;;;;;1.13;0.47;;;;;;;;;;5116800;28;20028;-58
2023/11/19 16:35:23;;;;;;;1.45;0.85;;;;;;;;;;5117318;28;20064;-59
2023/11/19 16:38:03;;;;;;;4.45;0.80;;;;;;;;;;5117735;28;20059;-59
2023/11/19 16:40:29;;;;;;;1.23;0.60;;;;;;;;;;5115073;28;20058;-59
2023/11/19 16:42:56;;;;;;;0.90;0.40;;;;;;;;;;5117016;28;20028;-59
2023/11/19 16:45:22;;;;;;;1.38;0.40;;;;;;;;;;5117189;28;20039;-58
2023/11/19 16:47:48;;;;;;;1.92;0.80;;;;;;;;;;5117811;28;20019;-59
2023/11/19 16:50:16;;;;;;;1.70;0.80;;;;;;;;;;5117196;28;20106;-59
2023/11/19 16:52:42;;;;;;;2.72;0.82;;;;;;;;;;5117556;28;20423;-59
2023/11/19 16:55:11;;;;;;;3.58;1.80;;;;;;;;;;5117349;28;20373;-59
2023/11/19 16:57:46;;;;;;;4.55;4.03;;;;;;;;;;5116842;28;20028;-60
2023/11/19 17:00:12;;;;;;;4.93;4.13;;;;;;;;;;5116976;28;20457;-60
2023/11/19 17:02:42;;;;;;;3.95;2.53;;;;;;;;;;5117417;28;20039;-60
2023/11/19 17:05:08;;;;;;;4.05;1.45;;;;;;;;;;5117228;28;20484;-60
2023/11/19 17:07:34;;;;;;;1.95;0.65;;;;;;;;;;5117056;28;20098;-59
2023/11/19 17:09:59;;;;;;;1.50;0.52;;;;;;;;;;5116973;28;20453;-59
2023/11/19 17:12:25;;;;;;;1.50;0.65;;;;;;;;;;5117151;28;20023;-59
2023/11/19 17:14:52;;;;;;;1.60;0.73;;;;;;;;;;5116838;28;20118;-59
2023/11/19 17:17:18;;;;;;;4.72;0.98;;;;;;;;;;5117668;28;20027;-59
2023/11/19 17:19:44;;;;;;;1.77;0.90;;;;;;;;;;5116693;28;20031;-59
2023/11/19 17:22:10;;;;;;;2.90;1.10;;;;;;;;;;5117029;28;20085;-59
2023/11/19 17:24:37;;;;;;;2.58;1.48;;;;;;;;;;5116567;28;20031;-59
2023/11/19 17:27:03;;;;;;;1.92;1.10;;;;;;;;;;5117536;28;20329;-59
2023/11/19 17:29:29;;;;;;;2.03;1.15;;;;;;;;;;5116522;28;20093;-59
2023/11/19 17:31:55;;;;;;;1.75;0.95;;;;;;;;;;5117032;28;20023;-59
2023/11/19 17:34:22;;;;;;;2.90;1.60;;;;;;;;;;5116939;28;20032;-59
2023/11/19 17:36:48;;;;;;;2.97;1.08;;;;;;;;;;5116880;28;20373;-59
2023/11/19 17:39:14;;;;;;;1.85;0.90;;;;;;;;;;5116211;28;20023;-59
2023/11/19 17:41:40;;;;;;;2.42;0.82;;;;;;;;;;5115647;28;20489;-59
2023/11/19 17:44:06;;;;;;;1.27;0.47;;;;;;;;;;5116440;28;20058;-59
2023/11/19 17:46:32;;;;;;;1.98;1.08;;;;;;;;;;5098419;28;20023;-59
2023/11/19 17:48:58;;;;;;;1.25;0.50;;;;;;;;;;5116675;28;20034;-59
2023/11/19 17:51:24;;;;;;;2.47;0.93;;;;;;;;;;5116036;28;20024;-59
2023/11/19 17:53:50;;;;;;;3.65;0.70;;;;;;;;;;5116037;28;20027;-59
2023/11/19 17:56:17;;;;;;;1.48;0.77;;;;;;;;;;5115533;28;20047;-59
2023/11/19 17:58:43;;;;;;;2.13;0.70;;;;;;;;;;5116774;28;20361;-59
2023/11/19 18:01:10;;;;;;;2.08;0.80;;;;;;;;;;5116328;28;20024;-59
2023/11/19 18:03:36;;;;;;;2.05;0.85;;;;;;;;;;5116670;28;20126;-59
2023/11/19 18:06:04;;;;;;;1.98;0.63;;;;;;;;;;5115655;28;20114;-59
2023/11/19 18:08:30;;;;;;;1.55;0.70;;;;;;;;;;5116283;28;20039;-59
2023/11/19 18:10:56;;;;;;;1.52;0.77;;;;;;;;;;5116442;28;20357;-59
2023/11/19 18:13:22;;;;;;;1.20;0.70;;;;;;;;;;5115331;28;20069;-59
2023/11/19 18:15:48;;;;;;;3.83;0.95;;;;;;;;;;5115428;28;20027;-60
2023/11/19 18:18:14;;;;;;;1.27;0.60;;;;;;;;;;5115551;28;20034;-59
2023/11/19 18:20:40;;;;;;;3.55;0.80;;;;;;;;;;5115245;28;20076;-60
2023/11/19 18:23:06;;;;;;;2.35;1.00;;;;;;;;;;5115601;28;20076;-59
2023/11/19 18:25:32;;;;;;;1.42;0.70;;;;;;;;;;5115156;28;20063;-58
2023/11/19 18:27:58;;;;;;;3.20;1.40;;;;;;;;;;5116102;28;20353;-58
2023/11/19 18:30:24;;;;;;;2.45;0.90;;;;;;;;;;5115812;28;20028;-59
2023/11/19 18:32:50;;;;;;;2.00;1.25;;;;;;;;;;5115412;28;20482;-59
2023/11/19 18:35:22;;;;;;;1.58;0.90;;;;;;;;;;5115226;28;20028;-58
2023/11/19 18:37:48;;;;;;;1.75;0.90;;;;;;;;;;5115853;28;20023;-59
2023/11/19 18:40:18;;;;;;;1.27;0.60;;;;;;;;;;5115483;28;20034;-60
2023/11/19 18:42:44;;;;;;;1.77;0.68;;;;;;;;;;5116142;28;20334;-60
2023/11/19 18:45:10;;;;;;;2.38;1.17;;;;;;;;;;5114720;28;20472;-59
2023/11/19 18:47:37;;;;;;;2.35;1.05;;;;;;;;;;5115382;28;20109;-58
2023/11/19 18:50:04;;;;;;;1.58;0.85;;;;;;;;;;5114827;28;20102;-59
2023/11/19 18:52:31;;;;;;;1.58;0.90;;;;;;;;;;5114748;28;20103;-59
2023/11/19 18:54:58;;;;;;;1.80;0.93;;;;;;;;;;5114193;28;20051;-59
2023/11/19 18:57:24;;;;;;;2.28;1.17;;;;;;;;;;5114678;28;20031;-60
2023/11/19 18:59:50;;;;;;;1.83;0.90;;;;;;;;;;5115002;28;20027;-59
2023/11/19 19:02:16;;;;;;;1.58;0.80;;;;;;;;;;5114893;28;20033;-58
2023/11/19 19:04:42;;;;;;;1.45;1.00;;;;;;;;;;5114583;28;20132;-59
2023/11/19 19:07:08;;;;;;;1.90;1.02;;;;;;;;;;5115231;28;20076;-59
2023/11/19 19:09:34;;;;;;;5.30;1.50;;;;;;;;;;5114690;28;20480;-59
2023/11/19 19:12:00;;;;;;;5.03;1.00;;;;;;;;;;5114651;28;20367;-59
2023/11/19 19:14:26;;;;;;;1.48;0.88;;;;;;;;;;5115098;28;20031;-59
2023/11/19 19:16:53;;;;;;;1.58;0.93;;;;;;;;;;5115093;28;20441;-59
2023/11/19 19:19:19;;;;;;;1.60;0.77;;;;;;;;;;5115358;28;20030;-60
2023/11/19 19:21:46;;;;;;;2.60;1.30;;;;;;;;;;5114830;28;20020;-59
2023/11/19 19:24:14;;;;;;;2.67;1.50;;;;;;;;;;5114133;28;20026;-60
2023/11/19 19:26:41;;;;;;;2.00;0.95;;;;;;;;;;5115009;28;20414;-59
2023/11/19 19:29:07;;;;;;;2.65;1.42;;;;;;;;;;5114067;28;20388;-59
2023/11/19 19:31:33;;;;;;;2.67;1.17;;;;;;;;;;5113912;28;20024;-59
2023/11/19 19:34:00;;;;;;;1.77;1.13;;;;;;;;;;5114489;28;20027;-60
2023/11/19 19:36:27;;;;;;;2.22;1.27;;;;;;;;;;5113941;28;20032;-59
2023/11/19 19:38:54;;;;;;;5.30;1.33;;;;;;;;;;5113932;28;20062;-58
2023/11/19 19:41:20;;;;;;;3.35;1.10;;;;;;;;;;5113809;28;20466;-60
2023/11/19 19:43:46;;;;;;;1.92;1.15;;;;;;;;;;5113737;28;20027;-58
2023/11/19 19:46:12;;;;;;;2.70;1.40;;;;;;;;;;5114412;28;20150;-59
2023/11/19 19:48:38;;;;;;;2.05;1.15;;;;;;;;;;5114290;28;20055;-60
2023/11/19 19:51:06;;;;;;;2.60;1.30;;;;;;;;;;5113737;28;20530;-60
2023/11/19 19:53:32;;;;;;;2.38;1.38;;;;;;;;;;5113885;28;20092;-60
2023/11/19 19:55:59;;;;;;;3.88;1.92;;;;;;;;;;5114392;28;20055;-60
2023/11/19 19:58:25;;;;;;;3.35;1.27;;;;;;;;;;5096545;28;20364;-60
2023/11/19 20:00:51;;;;;;;2.58;1.58;;;;;;;;;;5113685;28;20023;-60
2023/11/19 20:03:18;;;;;;;2.83;0.90;;;;;;;;;;5096290;28;20119;-57
2023/11/19 20:05:44;;;;;;;2.08;1.02;;;;;;;;;;5113891;28;20031;-60
2023/11/19 20:08:10;;;;;;;1.75;0.88;;;;;;;;;;5118439;28;20043;-59
2023/11/19 20:10:39;;;;;;;1.70;0.77;;;;;;;;;;5118127;28;20023;-58
2023/11/19 20:13:12;;;;;;;3.80;0.80;;;;;;;;;;5118140;28;20103;-59
2023/11/19 20:15:39;;;;;;;2.55;0.90;;;;;;;;;;5118581;28;20026;-59
2023/11/19 20:18:10;;;;;;;2.55;1.30;;;;;;;;;;5117745;28;20481;-58
2023/11/19 20:20:40;;;;;;;3.10;1.33;;;;;;;;;;5118851;28;20031;-59
2023/11/19 20:23:06;;;;;;;2.20;0.95;;;;;;;;;;5117968;28;20051;-59
2023/11/19 20:25:33;;;;;;;2.38;1.02;;;;;;;;;;5117713;28;20032;-59
2023/11/19 20:27:59;;;;;;;2.25;1.02;;;;;;;;;;5118154;28;20039;-59
2023/11/19 20:30:25;;;;;;;2.92;1.52;;;;;;;;;;5117764;28;20020;-59
2023/11/19 20:32:51;;;;;;;2.75;1.23;;;;;;;;;;5118521;28;20348;-59
2023/11/19 20:35:17;;;;;;;2.60;0.93;;;;;;;;;;5117596;28;20111;-59
2023/11/19 20:37:43;;;;;;;1.95;0.57;;;;;;;;;;5118267;28;20038;-60
2023/11/19 20:40:11;;;;;;;2.50;1.17;;;;;;;;;;5117700;28;20028;-60
2023/11/19 20:42:38;;;;;;;3.15;1.15;;;;;;;;;;5117183;28;20020;-60
2023/11/19 20:45:04;;;;;;;4.28;0.90;;;;;;;;;;5117215;28;20039;-60
2023/11/19 20:47:30;;;;;;;2.30;1.08;;;;;;;;;;5117370;28;20035;-59
2023/11/19 20:49:56;;;;;;;1.80;1.15;;;;;;;;;;5117196;28;20027;-60
2023/11/19 20:52:22;;;;;;;2.22;0.93;;;;;;;;;;5117712;28;20027;-59
2023/11/19 20:54:48;;;;;;;1.65;1.05;;;;;;;;;;5116855;28;20461;-60
2023/11/19 20:57:14;;;;;;;2.35;1.00;;;;;;;;;;5117400;28;20035;-60
2023/11/19 20:59:40;;;;;;;1.88;0.80;;;;;;;;;;5116774;28;20024;-58
2023/11/19 21:02:06;;;;;;;2.78;1.38;;;;;;;;;;5117622;28;20059;-59
2023/11/19 21:04:32;;;;;;;6.28;1.15;;;;;;;;;;5117135;28;20063;-59
2023/11/19 21:07:02;;;;;;;1.55;0.80;;;;;;;;;;5116992;28;20082;-60
2023/11/19 21:09:27;;;;;;;2.30;1.27;;;;;;;;;;5116849;28;20024;-59
2023/11/19 21:11:54;;;;;;;2.78;0.90;;;;;;;;;;5116874;28;20494;-59
2023/11/19 21:14:20;;;;;;;2.92;1.33;;;;;;;;;;5117280;28;20039;-59
2023/11/19 21:16:46;;;;;;;3.97;1.65;;;;;;;;;;5116823;28;20024;-59
2023/11/19 21:19:12;;;;;;;5.78;1.20;;;;;;;;;;5116720;28;20368;-58
2023/11/19 21:21:37;;;;;;;3.25;1.13;;;;;;;;;;5116638;28;20016;-59
2023/11/19 21:24:04;;;;;;;5.15;2.05;;;;;;;;;;5116501;28;20024;-58
2023/11/19 21:26:30;;;;;;;3.80;1.83;;;;;;;;;;5116546;28;20028;-60
2023/11/19 21:28:56;;;;;;;3.78;1.40;;;;;;;;;;5117137;28;20092;-59
2023/11/19 21:31:22;;;;;;;6.65;1.63;;;;;;;;;;5116986;28;20051;-59
2023/11/19 21:33:47;;;;;;;5.25;1.63;;;;;;;;;;5117171;28;20433;-60
2023/11/19 21:36:13;;;;;;;6.07;1.52;;;;;;;;;;5117211;28;20501;-59
2023/11/19 21:38:39;;;;;;;5.38;1.38;;;;;;;;;;5117007;28;20111;-59
2023/11/19 21:41:06;;;;;;;4.47;1.27;;;;;;;;;;5117025;28;20038;-58
2023/11/19 21:43:33;;;;;;;5.40;1.48;;;;;;;;;;5117033;28;20036;-60
2023/11/19 21:45:59;;;;;;;8.50;1.38;;;;;;;;;;5115847;28;20051;-60
2023/11/19 21:48:26;;;;;;;7.38;2.33;;;;;;;;;;5116396;28;20467;-60
2023/11/19 21:50:52;;;;;;;5.50;1.80;;;;;;;;;;5116228;28;20457;-59
2023/11/19 21:53:18;;;;;;;3.05;1.52;;;;;;;;;;5115844;28;20027;-60
2023/11/19 21:55:43;;;;;;;5.88;1.48;;;;;;;;;;5116319;28;20063;-59
2023/11/19 21:58:09;;;;;;;5.50;1.38;;;;;;;;;;5116508;28;20024;-57
2023/11/19 22:00:35;;;;;;;9.00;1.95;;;;;;;;;;5116110;28;20024;-57
2023/11/19 22:03:02;;;;;;;7.88;2.10;;;;;;;;;;5116009;28;20054;-59
2023/11/19 22:05:28;;;;;;;5.75;1.95;;;;;;;;;;5116435;28;20059;-56
2023/11/19 22:07:54;;;;;;;10.75;1.95;;;;;;;;;;5116475;28;20432;-57
2023/11/19 22:10:20;;;;;;;6.45;1.08;;;;;;;;;;5115869;28;20350;-57
2023/11/19 22:12:46;;;;;;;3.63;1.40;;;;;;;;;;5115814;28;20035;-57
2023/11/19 22:15:12;;;;;;;3.83;1.63;;;;;;;;;;5115847;28;20422;-57
2023/11/19 22:17:38;;;;;;;4.45;1.65;;;;;;;;;;5116501;28;20020;-57
2023/11/19 22:20:07;;;;;;;4.70;1.73;;;;;;;;;;5116175;28;20028;-57
2023/11/19 22:22:33;;;;;;;6.05;1.40;;;;;;;;;;5115357;28;20027;-57
2023/11/19 22:24:59;;;;;;;6.95;2.33;;;;;;;;;;5116064;28;20476;-60
2023/11/19 22:27:25;;;;;;;2.55;1.30;;;;;;;;;;5115571;28;20050;-58
2023/11/19 22:29:51;;;;;;;4.57;1.30;;;;;;;;;;5114642;28;20027;-57
2023/11/19 22:32:17;;;;;;;3.95;1.20;;;;;;;;;;5116000;28;20031;-58
2023/11/19 22:34:43;;;;;;;7.30;1.63;;;;;;;;;;5115133;28;20054;-58
2023/11/19 22:37:09;;;;;;;2.78;1.27;;;;;;;;;;5115592;28;20019;-58
2023/11/19 22:39:35;;;;;;;4.10;1.00;;;;;;;;;;5115943;28;20031;-58
2023/11/19 22:42:01;;;;;;;5.18;1.48;;;;;;;;;;5115678;28;20023;-58
2023/11/19 22:44:27;;;;;;;5.72;1.25;;;;;;;;;;5115234;28;20064;-58
2023/11/19 22:46:54;;;;;;;6.75;1.70;;;;;;;;;;5115606;28;20088;-60
2023/11/19 22:49:20;;;;;;;7.80;1.70;;;;;;;;;;5115576;28;20024;-60
2023/11/19 22:51:47;;;;;;;6.13;2.20;;;;;;;;;;5114616;28;20019;-58
2023/11/19 22:54:13;;;;;;;7.05;1.63;;;;;;;;;;5115177;28;20107;-58
2023/11/19 22:56:39;;;;;;;7.60;1.73;;;;;;;;;;5115516;28;20533;-58
2023/11/19 22:59:05;;;;;;;3.72;1.98;;;;;;;;;;5114818;28;20107;-58
2023/11/19 23:01:33;;;;;;;4.63;2.13;;;;;;;;;;5114679;28;20054;-58
2023/11/19 23:03:59;;;;;;;6.22;1.48;;;;;;;;;;5115537;28;20060;-58
2023/11/19 23:06:25;;;;;;;5.25;1.75;;;;;;;;;;5114887;28;20110;-59
2023/11/19 23:08:51;;;;;;;16.23;2.15;;;;;;;;;;5114964;28;20418;-60
2023/11/19 23:11:18;;;;;;;1.65;0.82;;;;;;;;;;5114627;28;20476;-60
2023/11/19 23:13:44;;;;;;;4.15;1.35;;;;;;;;;;5115363;28;20031;-60
2023/11/19 23:16:12;;;;;;;8.02;1.85;;;;;;;;;;5114571;28;20032;-60
2023/11/19 23:18:38;;;;;;;8.10;1.65;;;;;;;;;;5115096;28;20032;-60
2023/11/19 23:21:04;;;;;;;8.85;2.08;;;;;;;;;;5114509;28;20111;-59
2023/11/19 23:23:30;;;;;;;3.30;1.33;;;;;;;;;;5114920;28;20513;-60
2023/11/19 23:25:57;;;;;;;5.28;2.47;;;;;;;;;;5114833;28;20127;-60
2023/11/19 23:28:23;;;;;;;3.55;1.30;;;;;;;;;;5114410;28;20028;-57
2023/11/19 23:30:49;;;;;;;9.13;1.63;;;;;;;;;;5114309;28;20057;-57
2023/11/19 23:33:15;;;;;;;5.30;1.73;;;;;;;;;;5114280;28;20149;-60
2023/11/19 23:35:41;;;;;;;3.17;1.08;;;;;;;;;;5114821;28;20342;-60
2023/11/19 23:38:07;;;;;;;7.55;1.80;;;;;;;;;;5114559;28;20140;-60
2023/11/19 23:40:33;;;;;;;4.20;1.30;;;;;;;;;;5114503;28;20027;-60
2023/11/19 23:42:59;;;;;;;3.90;1.67;;;;;;;;;;5114192;28;20039;-60
2023/11/19 23:45:25;;;;;;;1.50;0.73;;;;;;;;;;5113970;28;20093;-57
2023/11/19 23:47:52;;;;;;;4.85;1.35;;;;;;;;;;5114942;28;20019;-58
2023/11/19 23:50:18;;;;;;;3.60;1.40;;;;;;;;;;5114033;28;20031;-60
2023/11/19 23:52:44;;;;;;;3.85;1.27;;;;;;;;;;5114578;28;20118;-59
2023/11/19 23:55:11;;;;;;;6.00;2.20;;;;;;;;;;5113975;28;20388;-58
2023/11/19 23:57:37;;;;;;;3.00;1.50;;;;;;;;;;5113742;28;20052;-58
